Time;durP1;ratioP1;P1;durP2;ratioP2;P2;SDS_P1;SDS_P2;PMS_P1;PMS_P2;Temp;Humidity;BMP_temperature;BMP_pressure;BME280_temperature;BME280_humidity;BME280_pressure;Samples;Min_cycle;Max_cycle;Signal;HPM_P1;HPM_P2
2022/10/27 00:01:56;;;;;;;;;;;19.30;67.50;;;;;;5154649;27;20443;-64
2022/10/27 00:04:21;;;;;;;;;;;19.30;68.10;;;;;;5136550;27;19919;-64
2022/10/27 00:06:47;;;;;;;;;;;19.30;67.50;;;;;;5136152;27;20374;-66
2022/10/27 00:09:12;;;;;;;;;;;19.30;67.40;;;;;;5136229;27;19923;-64
2022/10/27 00:11:38;;;;;;;;;;;19.30;67.50;;;;;;5136092;27;19963;-64
2022/10/27 00:14:03;;;;;;;;;;;19.20;67.40;;;;;;5136129;27;19919;-64
2022/10/27 00:16:29;;;;;;;;;;;19.30;67.40;;;;;;5136054;27;19919;-64
2022/10/27 00:18:54;;;;;;;;;;;19.20;67.40;;;;;;5119436;27;19919;-64
2022/10/27 00:21:20;;;;;;;;;;;19.30;67.50;;;;;;5135992;27;19923;-64
2022/10/27 00:23:48;;;;;;;;;;;19.30;67.50;;;;;;5135890;27;20335;-64
2022/10/27 00:26:14;;;;;;;;;;;19.20;67.40;;;;;;5136194;27;19919;-64
2022/10/27 00:28:40;;;;;;;;;;;19.20;67.40;;;;;;5135991;27;19919;-65
2022/10/27 00:31:10;;;;;;;;;;;19.20;67.40;;;;;;5135840;27;19925;-64
2022/10/27 00:33:35;;;;;;;;;;;19.20;67.50;;;;;;5136113;27;20014;-64
2022/10/27 00:36:03;;;;;;;;;;;19.20;67.50;;;;;;5154068;27;20341;-65
2022/10/27 00:38:28;;;;;;;;;;;19.20;67.50;;;;;;5135678;27;20386;-64
2022/10/27 00:40:54;;;;;;;;;;;19.20;67.50;;;;;;5135583;27;19929;-64
2022/10/27 00:43:36;;;;;;;;;;;19.20;67.50;;;;;;5135845;27;19944;-63
2022/10/27 00:46:22;;;;;;;;;;;19.20;67.50;;;;;;5135553;27;19919;-64
2022/10/27 00:48:50;;;;;;;;;;;19.20;67.50;;;;;;5135724;27;19919;-64
2022/10/27 00:51:16;;;;;;;;;;;19.20;67.50;;;;;;5135817;27;20002;-64
2022/10/27 00:53:42;;;;;;;;;;;19.20;67.50;;;;;;5154160;27;19928;-64
2022/10/27 00:56:08;;;;;;;;;;;19.10;67.50;;;;;;5135105;27;19919;-64
2022/10/27 00:58:33;;;;;;;;;;;19.10;67.50;;;;;;5135352;27;19919;-64
2022/10/27 01:01:00;;;;;;;;;;;19.10;67.50;;;;;;5135063;27;19923;-64
2022/10/27 01:03:26;;;;;;;;;;;19.10;67.60;;;;;;5135258;27;19922;-64
2022/10/27 01:05:52;;;;;;;;;;;19.10;67.50;;;;;;5154196;27;20014;-64
2022/10/27 01:08:18;;;;;;;;;;;19.10;67.50;;;;;;5135645;27;19927;-64
2022/10/27 01:10:43;;;;;;;;;;;19.10;67.50;;;;;;5135440;27;19919;-64
2022/10/27 01:13:09;;;;;;;;;;;19.10;67.50;;;;;;5135607;27;19919;-64
2022/10/27 01:15:47;;;;;;;;;;;19.10;67.60;;;;;;5135672;27;20256;-64
2022/10/27 01:21:06;;;;;;;;;;;19.10;67.60;;;;;;5122666;27;2005862;-63
2022/10/27 01:23:52;;;;;;;;;;;19.10;67.60;;;;;;5174324;27;19925;-63
2022/10/27 01:34:21;;;;;;;;;;;19.10;67.60;;;;;;5110210;27;19916;-64
2022/10/27 01:36:50;;;;;;;;;;;19.10;67.60;;;;;;5092277;28;20001;-64
2022/10/27 01:39:28;;;;;;;;;;;19.10;67.70;;;;;;5091738;28;20402;-64
2022/10/27 01:41:56;;;;;;;;;;;19.20;67.70;;;;;;5092136;28;19920;-64
2022/10/27 01:44:26;;;;;;;;;;;19.10;67.70;;;;;;5108750;28;19968;-64
2022/10/27 01:46:52;;;;;;;;;;;19.10;67.70;;;;;;5108691;28;19934;-64
2022/10/27 01:49:19;;;;;;;;;;;19.10;67.70;;;;;;5091724;28;20419;-64
2022/10/27 01:51:45;;;;;;;;;;;19.00;67.60;;;;;;5091993;28;20366;-64
2022/10/27 01:54:11;;;;;;;;;;;19.10;67.80;;;;;;5091433;28;19975;-64
2022/10/27 01:56:56;;;;;;;;;;;19.00;67.60;;;;;;5109835;28;19920;-64
2022/10/27 01:59:42;;;;;;;;;;;19.10;67.70;;;;;;5091289;28;19924;-64
2022/10/27 02:05:08;;;;;;;;;;;19.00;67.70;;;;;;5110203;27;19934;-64
2022/10/27 02:07:38;;;;;;;;;;;19.00;67.60;;;;;;5091867;28;19966;-64
2022/10/27 02:10:06;;;;;;;;;;;19.00;67.70;;;;;;5110129;28;19951;-64
2022/10/27 02:12:33;;;;;;;;;;;19.10;67.80;;;;;;5108439;28;20283;-64
2022/10/27 02:15:01;;;;;;;;;;;19.00;67.70;;;;;;5108817;28;20336;-64
2022/10/27 02:17:30;;;;;;;;;;;19.00;67.60;;;;;;5108771;28;19920;-64
2022/10/27 02:19:56;;;;;;;;;;;19.00;67.70;;;;;;5109882;28;19926;-64
2022/10/27 02:22:24;;;;;;;;;;;19.00;67.70;;;;;;5108603;28;20379;-64
2022/10/27 02:24:50;;;;;;;;;;;19.00;67.60;;;;;;5109876;28;19920;-64
2022/10/27 02:27:25;;;;;;;;;;;19.00;67.60;;;;;;5109857;28;19927;-64
2022/10/27 02:29:52;;;;;;;;;;;19.00;67.70;;;;;;5109675;28;20337;-64
2022/10/27 02:32:18;;;;;;;;;;;19.00;67.60;;;;;;5108451;28;19924;-64
2022/10/27 02:34:44;;;;;;;;;;;18.90;67.60;;;;;;5108594;28;19920;-64
2022/10/27 02:37:16;;;;;;;;;;;18.90;67.60;;;;;;5108979;28;19931;-64
2022/10/27 02:39:41;;;;;;;;;;;18.90;67.60;;;;;;5107935;28;19972;-64
2022/10/27 02:42:07;;;;;;;;;;;19.00;67.70;;;;;;5108878;28;19924;-64
2022/10/27 02:44:32;;;;;;;;;;;18.90;67.70;;;;;;5107849;28;20340;-66
2022/10/27 02:46:58;;;;;;;;;;;19.00;67.70;;;;;;5108153;28;19920;-64
2022/10/27 02:49:23;;;;;;;;;;;18.90;67.70;;;;;;5108130;28;19920;-64
2022/10/27 02:51:49;;;;;;;;;;;19.00;67.70;;;;;;5109365;28;19967;-64
2022/10/27 02:54:14;;;;;;;;;;;18.90;67.70;;;;;;5107972;28;19930;-65
2022/10/27 02:56:40;;;;;;;;;;;18.90;67.60;;;;;;5108299;28;20013;-66
2022/10/27 02:59:05;;;;;;;;;;;18.90;67.70;;;;;;5108172;28;20364;-64
2022/10/27 03:01:31;;;;;;;;;;;18.90;67.70;;;;;;5109153;28;19920;-64
2022/10/27 03:03:56;;;;;;;;;;;18.90;67.70;;;;;;5122731;27;19927;-65
2022/10/27 03:06:22;;;;;;;;;;;18.90;67.70;;;;;;5129523;28;20006;-64
2022/10/27 03:08:47;;;;;;;;;;;18.90;67.70;;;;;;5111555;28;19927;-64
2022/10/27 03:11:13;;;;;;;;;;;19.00;67.80;;;;;;5111085;28;20378;-64
2022/10/27 03:13:39;;;;;;;;;;;18.90;67.70;;;;;;5129363;28;19924;-64
2022/10/27 03:16:05;;;;;;;;;;;18.90;67.70;;;;;;5115819;28;19920;-64
2022/10/27 03:18:31;;;;;;;;;;;18.80;67.70;;;;;;5097741;28;20329;-64
2022/10/27 03:20:56;;;;;;;;;;;18.90;67.70;;;;;;5097576;28;20191;-64
2022/10/27 03:23:22;;;;;;;;;;;18.80;67.70;;;;;;5115721;28;20014;-64
2022/10/27 03:25:47;;;;;;;;;;;18.80;67.70;;;;;;5115650;28;19974;-64
2022/10/27 03:28:13;;;;;;;;;;;18.80;67.70;;;;;;5097493;28;19920;-65
2022/10/27 03:30:38;;;;;;;;;;;18.80;67.70;;;;;;5097335;28;20395;-64
2022/10/27 03:33:04;;;;;;;;;;;18.80;67.70;;;;;;5096998;28;19931;-64
2022/10/27 03:35:30;;;;;;;;;;;18.80;67.70;;;;;;5115545;28;19923;-64
2022/10/27 03:37:56;;;;;;;;;;;18.80;67.70;;;;;;5097260;28;20386;-64
2022/10/27 03:40:22;;;;;;;;;;;18.80;67.70;;;;;;5097005;28;19920;-64
2022/10/27 03:42:48;;;;;;;;;;;18.80;67.80;;;;;;5096954;28;19924;-64
2022/10/27 03:45:14;;;;;;;;;;;18.80;67.80;;;;;;5097141;28;19926;-64
2022/10/27 03:47:39;;;;;;;;;;;18.80;67.70;;;;;;5097078;28;20116;-64
2022/10/27 03:50:05;;;;;;;;;;;18.80;67.80;;;;;;5115307;28;19927;-64
2022/10/27 03:52:30;;;;;;;;;;;18.80;67.70;;;;;;5096715;28;19924;-64
2022/10/27 03:54:56;;;;;;;;;;;18.80;67.70;;;;;;5097053;28;19927;-65
2022/10/27 03:57:21;;;;;;;;;;;18.80;68.60;;;;;;5114824;28;20287;-64
2022/10/27 03:59:47;;;;;;;;;;;18.70;67.70;;;;;;5096867;28;19919;-64
2022/10/27 04:02:12;;;;;;;;;;;18.80;67.80;;;;;;5096766;28;19941;-64
2022/10/27 04:04:38;;;;;;;;;;;18.80;67.80;;;;;;5114510;28;19927;-64
2022/10/27 04:07:03;;;;;;;;;;;18.80;68.60;;;;;;5114730;28;19965;-64
2022/10/27 04:09:29;;;;;;;;;;;18.80;67.80;;;;;;5096821;28;19927;-64
2022/10/27 04:11:54;;;;;;;;;;;18.80;67.80;;;;;;5113888;28;20310;-66
2022/10/27 04:14:20;;;;;;;;;;;18.80;67.80;;;;;;5096597;28;19932;-64
2022/10/27 04:16:50;;;;;;;;;;;18.80;67.80;;;;;;5096272;28;19920;-66
2022/10/27 04:19:17;;;;;;;;;;;18.80;67.90;;;;;;5096043;28;20453;-66
2022/10/27 04:21:42;;;;;;;;;;;18.80;67.80;;;;;;5096519;28;19920;-64
2022/10/27 04:24:08;;;;;;;;;;;18.70;67.80;;;;;;5096109;28;20446;-64
2022/10/27 04:26:34;;;;;;;;;;;18.70;67.80;;;;;;5095442;28;19959;-64
2022/10/27 04:28:59;;;;;;;;;;;18.70;67.80;;;;;;5096274;28;19924;-64
2022/10/27 04:31:24;;;;;;;;;;;18.70;67.80;;;;;;5096263;28;20279;-64
2022/10/27 04:33:50;;;;;;;;;;;18.70;67.80;;;;;;5096151;28;19947;-64
2022/10/27 04:36:15;;;;;;;;;;;18.70;67.80;;;;;;5095989;28;19920;-64
2022/10/27 04:38:41;;;;;;;;;;;18.70;67.80;;;;;;5114126;28;19920;-64
2022/10/27 04:41:07;;;;;;;;;;;18.70;67.90;;;;;;5114174;28;20298;-64
2022/10/27 04:43:32;;;;;;;;;;;18.70;67.80;;;;;;5095663;28;19931;-64
2022/10/27 04:45:58;;;;;;;;;;;18.70;67.90;;;;;;5113956;28;19927;-64
2022/10/27 04:48:23;;;;;;;;;;;18.70;67.90;;;;;;5113850;28;20380;-64
2022/10/27 04:50:49;;;;;;;;;;;18.70;67.80;;;;;;5095896;28;20398;-64
2022/10/27 04:53:14;;;;;;;;;;;18.70;67.80;;;;;;5095584;28;19923;-64
2022/10/27 04:55:40;;;;;;;;;;;18.70;67.90;;;;;;5113828;28;19924;-64
2022/10/27 04:58:05;;;;;;;;;;;18.70;67.80;;;;;;5095531;28;20060;-64
2022/10/27 05:00:31;;;;;;;;;;;18.60;67.80;;;;;;5113675;28;19989;-64
2022/10/27 05:02:57;;;;;;;;;;;18.70;67.90;;;;;;5095355;28;19951;-64
2022/10/27 05:05:24;;;;;;;;;;;18.60;67.80;;;;;;5095300;28;20007;-64
2022/10/27 05:07:51;;;;;;;;;;;18.60;67.80;;;;;;5095047;28;19990;-64
2022/10/27 05:10:16;;;;;;;;;;;18.60;67.80;;;;;;5113299;28;20011;-64
2022/10/27 05:12:42;;;;;;;;;;;18.70;67.80;;;;;;5113519;28;20022;-64
2022/10/27 05:15:07;;;;;;;;;;;18.70;67.90;;;;;;5113498;28;20287;-64
2022/10/27 05:17:34;;;;;;;;;;;18.70;67.90;;;;;;5095050;28;19920;-64
2022/10/27 05:20:00;;;;;;;;;;;18.60;67.80;;;;;;5095359;28;19920;-64
2022/10/27 05:22:25;;;;;;;;;;;18.60;67.80;;;;;;5113470;28;19927;-65
2022/10/27 05:24:51;;;;;;;;;;;18.60;67.80;;;;;;5113298;28;19920;-64
2022/10/27 05:27:16;;;;;;;;;;;18.60;67.80;;;;;;5095362;28;19919;-64
2022/10/27 05:29:42;;;;;;;;;;;18.60;67.90;;;;;;5094956;28;20391;-64
2022/10/27 05:32:07;;;;;;;;;;;18.60;67.80;;;;;;5113074;28;19919;-64
2022/10/27 05:34:33;;;;;;;;;;;18.60;67.80;;;;;;5094850;28;20010;-64
2022/10/27 05:36:58;;;;;;;;;;;18.60;67.80;;;;;;5095091;28;19970;-64
2022/10/27 05:39:24;;;;;;;;;;;18.60;67.90;;;;;;5094857;28;20015;-64
2022/10/27 05:41:49;;;;;;;;;;;18.60;67.80;;;;;;5112956;28;20056;-64
2022/10/27 05:44:15;;;;;;;;;;;18.60;67.80;;;;;;5093228;28;19969;-63
2022/10/27 05:46:40;;;;;;;;;;;18.60;67.80;;;;;;5111269;28;19920;-64
2022/10/27 05:49:06;;;;;;;;;;;18.60;67.90;;;;;;5093949;28;20371;-64
2022/10/27 05:51:31;;;;;;;;;;;18.60;67.90;;;;;;5102547;28;19926;-64
2022/10/27 05:53:57;;;;;;;;;;;18.60;67.90;;;;;;5099598;27;19920;-66
2022/10/27 05:56:22;;;;;;;;;;;18.60;68.00;;;;;;5109775;28;20333;-66
2022/10/27 05:58:48;;;;;;;;;;;18.60;68.60;;;;;;5090448;28;19920;-65
2022/10/27 06:01:13;;;;;;;;;;;18.60;69.10;;;;;;5067095;28;19942;-69
2022/10/27 06:03:39;;;;;;;;;;;18.60;68.90;;;;;;5088942;28;19931;-65
2022/10/27 06:06:05;;;;;;;;;;;18.70;69.00;;;;;;5098945;28;19973;-65
2022/10/27 06:08:30;;;;;;;;;;;18.60;69.10;;;;;;5089427;28;19923;-64
2022/10/27 06:10:56;;;;;;;;;;;18.70;69.20;;;;;;5104701;28;19931;-65
2022/10/27 06:13:21;;;;;;;;;;;18.70;69.00;;;;;;5084607;28;19928;-65
2022/10/27 06:15:47;;;;;;;;;;;18.70;69.10;;;;;;5098945;28;19935;-65
2022/10/27 06:18:12;;;;;;;;;;;18.60;69.10;;;;;;5083578;28;19927;-65
2022/10/27 06:20:38;;;;;;;;;;;18.70;69.20;;;;;;5084828;28;19920;-65
2022/10/27 06:23:04;;;;;;;;;;;18.70;69.30;;;;;;5056798;28;19923;-64
2022/10/27 06:25:29;;;;;;;;;;;18.70;69.60;;;;;;5086756;28;19927;-65
2022/10/27 06:27:55;;;;;;;;;;;18.70;69.90;;;;;;5090231;28;20762;-65
2022/10/27 06:30:20;;;;;;;;;;;18.70;70.00;;;;;;5072471;28;19923;-65
2022/10/27 06:32:46;;;;;;;;;;;18.80;70.20;;;;;;5076770;28;19935;-66
2022/10/27 06:35:11;;;;;;;;;;;18.80;70.00;;;;;;5070031;28;19934;-66
2022/10/27 06:37:38;;;;;;;;;;;18.80;70.00;;;;;;5086296;28;20002;-67
2022/10/27 06:40:05;;;;;;;;;;;18.80;70.00;;;;;;5088220;28;20520;-66
2022/10/27 06:42:31;;;;;;;;;;;18.80;70.00;;;;;;5089998;28;20431;-66
2022/10/27 06:44:56;;;;;;;;;;;18.80;70.20;;;;;;5081052;28;19928;-66
2022/10/27 06:47:22;;;;;;;;;;;18.80;70.40;;;;;;5089354;28;19934;-64
2022/10/27 06:49:47;;;;;;;;;;;18.80;70.50;;;;;;5074720;28;19920;-66
2022/10/27 06:52:13;;;;;;;;;;;18.80;70.60;;;;;;5074868;28;19932;-64
2022/10/27 06:54:38;;;;;;;;;;;18.80;70.90;;;;;;5097161;28;19920;-68
2022/10/27 06:57:05;;;;;;;;;;;18.80;71.20;;;;;;5096507;28;19924;-64
2022/10/27 06:59:31;;;;;;;;;;;18.90;71.40;;;;;;5077182;28;20474;-68
2022/10/27 07:01:56;;;;;;;;;;;18.90;71.40;;;;;;5093501;27;19920;-67
2022/10/27 07:04:22;;;;;;;;;;;18.90;71.30;;;;;;5092972;28;20366;-66
2022/10/27 07:06:47;;;;;;;;;;;18.90;71.20;;;;;;5081953;28;19924;-66
2022/10/27 07:09:13;;;;;;;;;;;18.90;71.30;;;;;;5110999;27;19928;-67
2022/10/27 07:11:39;;;;;;;;;;;19.00;71.50;;;;;;5079287;28;20296;-65
2022/10/27 07:14:04;;;;;;;;;;;19.00;71.70;;;;;;5083095;28;19924;-67
2022/10/27 07:16:30;;;;;;;;;;;19.00;71.60;;;;;;5094402;28;19924;-68
2022/10/27 07:18:55;;;;;;;;;;;19.00;71.00;;;;;;5081872;28;19920;-66
2022/10/27 07:21:21;;;;;;;;;;;19.00;71.20;;;;;;5090492;28;20053;-65
2022/10/27 07:23:46;;;;;;;;;;;19.00;71.00;;;;;;5091530;28;20380;-66
2022/10/27 07:26:12;;;;;;;;;;;19.00;70.90;;;;;;5093145;28;20023;-67
2022/10/27 07:28:37;;;;;;;;;;;19.10;71.30;;;;;;5083818;28;19928;-67
2022/10/27 07:31:03;;;;;;;;;;;19.10;70.80;;;;;;5082883;28;20419;-66
2022/10/27 07:33:28;;;;;;;;;;;19.10;70.60;;;;;;5074183;28;19924;-66
2022/10/27 07:35:54;;;;;;;;;;;19.10;70.60;;;;;;5095035;28;19968;-65
2022/10/27 07:38:19;;;;;;;;;;;19.10;70.80;;;;;;5095560;27;20526;-66
2022/10/27 07:40:45;;;;;;;;;;;19.10;70.90;;;;;;5090728;28;19932;-66
2022/10/27 07:43:11;;;;;;;;;;;19.10;71.10;;;;;;5091250;28;19934;-66
2022/10/27 07:45:37;;;;;;;;;;;19.10;71.00;;;;;;5075161;28;19967;-67
2022/10/27 07:48:04;;;;;;;;;;;19.10;71.80;;;;;;5093540;28;19924;-65
2022/10/27 07:50:32;;;;;;;;;;;19.10;71.00;;;;;;5074367;28;19935;-67
2022/10/27 07:52:57;;;;;;;;;;;19.10;71.10;;;;;;5088744;28;19920;-67
2022/10/27 07:55:24;;;;;;;;;;;19.10;70.80;;;;;;5095039;28;19924;-70
2022/10/27 07:58:09;;;;;;;;;;;19.10;70.90;;;;;;5091959;28;19936;-67
2022/10/27 08:00:37;;;;;;;;;;;19.10;71.00;;;;;;5108753;27;19954;-66
2022/10/27 08:03:03;;;;;;;;;;;19.10;70.90;;;;;;5075827;28;19928;-67
2022/10/27 08:05:29;;;;;;;;;;;19.10;70.90;;;;;;5093341;28;19924;-67
2022/10/27 08:07:57;;;;;;;;;;;19.10;70.90;;;;;;5091971;28;19924;-69
2022/10/27 08:10:22;;;;;;;;;;;19.10;71.00;;;;;;5079815;28;20236;-67
2022/10/27 08:12:48;;;;;;;;;;;19.10;71.10;;;;;;5091355;28;19930;-67
2022/10/27 08:15:13;;;;;;;;;;;19.20;71.20;;;;;;5073688;28;19930;-66
2022/10/27 08:17:39;;;;;;;;;;;19.20;71.30;;;;;;5078290;28;19988;-65
2022/10/27 08:20:07;;;;;;;;;;;19.20;71.30;;;;;;5091840;28;19920;-64
2022/10/27 08:22:32;;;;;;;;;;;19.20;71.40;;;;;;5078933;28;19931;-64
2022/10/27 08:24:58;;;;;;;;;;;19.20;71.60;;;;;;5095185;28;20302;-64
2022/10/27 08:27:24;;;;;;;;;;;19.20;71.20;;;;;;5074017;28;20487;-65
2022/10/27 08:29:49;;;;;;;;;;;19.20;71.10;;;;;;5096893;27;19924;-63
2022/10/27 08:32:15;;;;;;;;;;;19.20;71.40;;;;;;5110997;27;19935;-63
2022/10/27 08:34:41;;;;;;;;;;;19.20;71.40;;;;;;5108042;27;20349;-65
2022/10/27 08:37:06;;;;;;;;;;;19.20;71.70;;;;;;5090895;28;19932;-68
2022/10/27 08:39:32;;;;;;;;;;;19.20;71.70;;;;;;5093033;27;19920;-64
2022/10/27 08:47:22;;;;;;;;;;;19.30;71.30;;;;;;5076331;27;19928;-64
2022/10/27 08:52:33;;;;;;;;;;;19.30;71.70;;;;;;5073027;27;19940;-64
2022/10/27 08:55:05;;;;;;;;;;;19.30;71.60;;;;;;5068572;28;19929;-64
2022/10/27 08:57:32;;;;;;;;;;;19.30;71.80;;;;;;5071621;28;19933;-63
2022/10/27 08:59:58;;;;;;;;;;;19.20;71.40;;;;;;5104725;27;19974;-64
2022/10/27 09:07:54;;;;;;;;;;;19.30;72.20;;;;;;5089040;27;20406;-68
2022/10/27 09:10:39;;;;;;;;;;;19.20;72.10;;;;;;5075687;28;19925;-64
2022/10/27 09:13:09;;;;;;;;;;;19.30;72.10;;;;;;5072789;28;19929;-64
2022/10/27 09:20:57;;;;;;;;;;;19.30;72.10;;;;;;5065669;28;19946;-69
2022/10/27 09:23:26;;;;;;;;;;;19.20;71.70;;;;;;5074229;28;19921;-64
2022/10/27 09:25:52;;;;;;;;;;;19.30;71.70;;;;;;5061860;28;19928;-64
2022/10/27 09:28:23;;;;;;;;;;;19.40;71.90;;;;;;5066226;28;19936;-65
2022/10/27 09:30:50;;;;;;;;;;;19.30;71.60;;;;;;5069475;28;19936;-65
2022/10/27 09:33:19;;;;;;;;;;;19.30;71.60;;;;;;5067181;28;19928;-65
2022/10/27 09:35:44;;;;;;;;;;;19.40;71.50;;;;;;5071850;28;20399;-65
2022/10/27 09:38:13;;;;;;;;;;;19.30;71.30;;;;;;5070769;28;19920;-65
2022/10/27 09:40:39;;;;;;;;;;;19.30;71.30;;;;;;5064561;28;19929;-65
2022/10/27 09:43:04;;;;;;;;;;;19.30;71.20;;;;;;5066614;28;19931;-65
2022/10/27 09:45:30;;;;;;;;;;;19.30;72.00;;;;;;5066645;28;19928;-64
2022/10/27 09:47:58;;;;;;;;;;;19.30;71.30;;;;;;5066192;28;20720;-66
2022/10/27 09:50:28;;;;;;;;;;;19.30;71.20;;;;;;5063593;28;20704;-65
2022/10/27 09:52:54;;;;;;;;;;;19.30;71.20;;;;;;5060979;28;19927;-65
2022/10/27 09:55:20;;;;;;;;;;;19.30;70.90;;;;;;5062873;28;19928;-65
2022/10/27 09:57:46;;;;;;;;;;;19.40;71.00;;;;;;5069808;28;19924;-64
2022/10/27 10:05:35;;;;;;;;;;;19.30;70.90;;;;;;5085562;27;19921;-64
2022/10/27 10:08:22;;;;;;;;;;;19.30;70.80;;;;;;5079677;28;19963;-65
2022/10/27 10:11:04;;;;;;;;;;;19.40;70.90;;;;;;5111711;27;19925;-65
2022/10/27 10:13:33;;;;;;;;;;;19.40;70.90;;;;;;5078114;28;19990;-63
2022/10/27 10:18:59;;;;;;;;;;;19.40;70.90;;;;;;5102824;27;1904456;-65
2022/10/27 10:21:25;;;;;;;;;;;19.40;71.10;;;;;;5157248;27;19923;-67
2022/10/27 10:23:52;;;;;;;;;;;19.40;71.60;;;;;;5156824;27;20330;-67
2022/10/27 10:29:12;;;;;;;;;;;19.40;71.90;;;;;;5087232;27;19924;-66
2022/10/27 10:31:37;;;;;;;;;;;19.40;71.90;;;;;;5095493;28;19929;-64
2022/10/27 10:34:05;;;;;;;;;;;19.50;71.90;;;;;;5082683;28;19932;-66
2022/10/27 10:36:34;;;;;;;;;;;19.50;72.00;;;;;;5117312;27;20020;-66
2022/10/27 10:39:00;;;;;;;;;;;19.50;71.70;;;;;;5118396;27;19929;-66
2022/10/27 10:41:27;;;;;;;;;;;19.50;71.80;;;;;;5083247;28;19920;-66
2022/10/27 10:44:11;;;;;;;;;;;19.50;71.40;;;;;;5086857;28;19931;-63
2022/10/27 10:46:39;;;;;;;;;;;19.50;72.20;;;;;;5086544;28;19924;-64
2022/10/27 10:49:04;;;;;;;;;;;19.60;73.00;;;;;;5086344;28;19931;-65
2022/10/27 10:51:31;;;;;;;;;;;19.60;72.60;;;;;;5085459;28;19928;-63
2022/10/27 10:54:00;;;;;;;;;;;19.60;72.40;;;;;;5120935;27;20432;-64
2022/10/27 10:56:27;;;;;;;;;;;19.60;72.40;;;;;;5089608;28;19924;-63
2022/10/27 10:59:13;;;;;;;;;;;19.60;72.60;;;;;;5117951;27;20011;-63
2022/10/27 11:01:57;;;;;;;;;;;19.60;72.70;;;;;;5086011;28;19927;-65
2022/10/27 11:04:24;;;;;;;;;;;19.60;72.70;;;;;;5089517;28;19924;-65
2022/10/27 11:07:09;;;;;;;;;;;19.60;72.70;;;;;;5090655;28;20018;-65
2022/10/27 11:09:55;;;;;;;;;;;19.60;72.60;;;;;;5089620;28;19978;-65
2022/10/27 11:12:40;;;;;;;;;;;19.70;72.70;;;;;;5087427;28;20317;-65
2022/10/27 11:17:57;;;;;;;;;;;19.60;72.60;;;;;;5142872;27;19929;-65
2022/10/27 11:20:24;;;;;;;;;;;19.80;72.50;;;;;;5112832;27;19966;-65
2022/10/27 11:22:51;;;;;;;;;;;19.60;72.40;;;;;;5114933;27;20010;-64
2022/10/27 11:25:18;;;;;;;;;;;19.70;72.30;;;;;;5138725;27;20561;-64
2022/10/27 11:27:56;;;;;;;;;;;19.60;72.00;;;;;;5120842;27;20018;-65
2022/10/27 11:30:23;;;;;;;;;;;19.70;72.20;;;;;;5117372;27;19947;-65
2022/10/27 11:32:53;;;;;;;;;;;19.70;72.40;;;;;;5115680;27;19923;-66
2022/10/27 11:38:18;;;;;;;;;;;19.70;71.90;;;;;;5111008;27;1863920;-64
2022/10/27 11:40:49;;;;;;;;;;;19.80;71.80;;;;;;5154397;27;19930;-64
2022/10/27 11:43:34;;;;;;;;;;;19.70;71.60;;;;;;5150546;27;20046;-65
2022/10/27 11:48:44;;;;;;;;;;;19.70;72.00;;;;;;5068888;27;19928;-64
2022/10/27 11:53:50;;;;;;;;;;;19.80;72.20;;;;;;5066430;28;19931;-63
2022/10/27 11:56:35;;;;;;;;;;;19.80;72.20;;;;;;5069232;28;19952;-64
2022/10/27 12:01:47;;;;;;;;;;;19.80;72.30;;;;;;5099705;27;2040747;-63
2022/10/27 12:06:59;;;;;;;;;;;19.90;72.30;;;;;;5111258;27;1862759;-65
2022/10/27 12:09:32;;;;;;;;;;;19.90;72.00;;;;;;5156736;27;20013;-63
2022/10/27 12:12:03;;;;;;;;;;;19.90;71.90;;;;;;5158805;27;19956;-64
2022/10/27 12:14:37;;;;;;;;;;;19.80;71.80;;;;;;5138086;27;19922;-64
2022/10/27 12:17:07;;;;;;;;;;;19.90;71.70;;;;;;5158191;27;20338;-65
2022/10/27 12:19:42;;;;;;;;;;;19.90;71.70;;;;;;5158957;27;20045;-66
2022/10/27 12:24:53;;;;;;;;;;;19.80;71.60;;;;;;5049897;28;19917;-62
2022/10/27 12:27:22;;;;;;;;;;;19.90;71.80;;;;;;5039518;28;20368;-63
2022/10/27 12:29:49;;;;;;;;;;;19.90;71.70;;;;;;5041544;28;19928;-65
2022/10/27 12:32:21;;;;;;;;;;;19.90;71.80;;;;;;5031949;28;19932;-65
2022/10/27 12:34:49;;;;;;;;;;;19.90;72.10;;;;;;5038557;28;20059;-64
2022/10/27 12:37:24;;;;;;;;;;;19.90;72.20;;;;;;5041342;28;19932;-64
2022/10/27 12:45:39;;;;;;;;;;;20.00;72.60;;;;;;5086658;27;19950;-64
2022/10/27 12:48:15;;;;;;;;;;;20.10;73.00;;;;;;5071228;28;19928;-67
2022/10/27 12:59:22;;;;;;;;;;;20.00;73.20;;;;;;5080305;27;1869983;-64
2022/10/27 13:01:57;;;;;;;;;;;20.10;73.00;;;;;;5133675;27;20471;-63
2022/10/27 13:04:31;;;;;;;;;;;20.10;72.80;;;;;;5121901;27;19968;-63
2022/10/27 13:07:16;;;;;;;;;;;20.00;72.50;;;;;;5112724;27;19993;-64
2022/10/27 13:12:43;;;;;;;;;;;20.10;72.30;;;;;;5092657;27;1862406;-64
2022/10/27 13:17:58;;;;;;;;;;;20.00;71.90;;;;;;5089407;27;20427;-63
2022/10/27 13:20:43;;;;;;;;;;;20.10;71.80;;;;;;5070843;28;20027;-64
2022/10/27 13:23:16;;;;;;;;;;;20.00;71.80;;;;;;5069581;28;19921;-63
2022/10/27 13:25:46;;;;;;;;;;;20.10;71.60;;;;;;5068244;28;19927;-64
2022/10/27 13:28:17;;;;;;;;;;;20.10;71.70;;;;;;5070305;28;20015;-64
2022/10/27 13:30:50;;;;;;;;;;;20.00;71.50;;;;;;5068602;28;19931;-64
2022/10/27 13:33:31;;;;;;;;;;;20.00;71.60;;;;;;5067640;28;20390;-65
2022/10/27 13:36:17;;;;;;;;;;;20.00;71.50;;;;;;5063490;28;19924;-64
2022/10/27 13:38:43;;;;;;;;;;;20.10;71.40;;;;;;5070450;28;19925;-64
2022/10/27 13:41:09;;;;;;;;;;;20.00;71.30;;;;;;5104817;28;20574;-64
2022/10/27 13:46:14;;;;;;;;;;;20.00;71.20;;;;;;5069565;28;19925;-64
2022/10/27 13:48:41;;;;;;;;;;;20.00;71.20;;;;;;5055730;28;20486;-64
2022/10/27 13:51:26;;;;;;;;;;;20.00;71.10;;;;;;5060408;28;20945;-64
2022/10/27 13:53:52;;;;;;;;;;;20.00;71.00;;;;;;5060625;28;19920;-63
2022/10/27 13:56:38;;;;;;;;;;;20.00;71.00;;;;;;5063356;28;19995;-64
2022/10/27 13:59:10;;;;;;;;;;;20.00;71.00;;;;;;5053882;28;19920;-65
2022/10/27 14:01:45;;;;;;;;;;;20.00;70.90;;;;;;5061521;28;19933;-64
2022/10/27 14:04:31;;;;;;;;;;;20.00;70.80;;;;;;5061299;28;20044;-63
2022/10/27 14:06:59;;;;;;;;;;;20.00;70.90;;;;;;5052690;28;19933;-64
2022/10/27 14:12:13;;;;;;;;;;;20.00;70.80;;;;;;5061231;28;19920;-64
2022/10/27 14:14:39;;;;;;;;;;;19.90;70.70;;;;;;5063160;28;19960;-65
2022/10/27 14:17:09;;;;;;;;;;;19.90;70.70;;;;;;5061938;28;19999;-65
2022/10/27 14:19:36;;;;;;;;;;;20.00;70.60;;;;;;5063773;28;20507;-65
2022/10/27 14:22:03;;;;;;;;;;;19.90;70.40;;;;;;5065097;28;19920;-65
2022/10/27 14:24:49;;;;;;;;;;;19.90;70.40;;;;;;5065927;28;19927;-64
2022/10/27 14:27:16;;;;;;;;;;;19.90;70.40;;;;;;5061283;28;19968;-65
2022/10/27 14:29:41;;;;;;;;;;;19.90;70.30;;;;;;5063206;28;19971;-64
2022/10/27 14:32:24;;;;;;;;;;;19.90;70.30;;;;;;5063043;28;19921;-65
2022/10/27 14:34:49;;;;;;;;;;;19.90;70.30;;;;;;5063840;28;19921;-67
2022/10/27 14:37:21;;;;;;;;;;;19.90;70.50;;;;;;5070250;28;19932;-67
2022/10/27 14:39:48;;;;;;;;;;;19.90;70.90;;;;;;5068356;28;19964;-67
2022/10/27 14:45:03;;;;;;;;;;;19.90;71.10;;;;;;5079948;27;19916;-67
2022/10/27 14:47:29;;;;;;;;;;;19.90;71.10;;;;;;5079784;28;20694;-68
2022/10/27 14:49:56;;;;;;;;;;;20.00;71.20;;;;;;5079355;28;19924;-70
2022/10/27 14:52:29;;;;;;;;;;;19.90;71.10;;;;;;5074144;28;19925;-70
2022/10/27 14:54:55;;;;;;;;;;;20.00;71.20;;;;;;5079115;28;19920;-70
2022/10/27 14:57:30;;;;;;;;;;;20.00;71.10;;;;;;5080190;28;19925;-68
2022/10/27 15:00:18;;;;;;;;;;;19.90;71.10;;;;;;5081096;28;19924;-69
2022/10/27 15:02:43;;;;;;;;;;;20.00;71.20;;;;;;5074731;28;20325;-65
2022/10/27 15:05:13;;;;;;;;;;;20.00;71.20;;;;;;5081229;28;19927;-65
2022/10/27 15:07:42;;;;;;;;;;;20.00;71.20;;;;;;5078767;28;19924;-65
2022/10/27 15:10:14;;;;;;;;;;;20.00;71.10;;;;;;5078155;28;19950;-65
2022/10/27 15:12:40;;;;;;;;;;;20.00;71.20;;;;;;5110219;28;20433;-65
2022/10/27 15:15:09;;;;;;;;;;;20.00;71.00;;;;;;5092678;28;19920;-66
2022/10/27 15:17:35;;;;;;;;;;;20.00;70.80;;;;;;5090793;28;20331;-66
2022/10/27 15:20:02;;;;;;;;;;;20.00;70.80;;;;;;5083654;28;19959;-66
2022/10/27 15:22:28;;;;;;;;;;;20.00;70.60;;;;;;5107340;28;20023;-66
2022/10/27 15:24:54;;;;;;;;;;;20.00;70.70;;;;;;5086682;28;20020;-65
2022/10/27 15:27:20;;;;;;;;;;;20.00;70.60;;;;;;5084994;28;20015;-66
2022/10/27 15:29:47;;;;;;;;;;;20.00;70.60;;;;;;5085596;28;19921;-65
2022/10/27 15:32:21;;;;;;;;;;;20.00;70.70;;;;;;5084205;28;19928;-66
2022/10/27 15:34:47;;;;;;;;;;;20.00;70.60;;;;;;5086636;28;19962;-65
2022/10/27 15:37:29;;;;;;;;;;;20.00;70.50;;;;;;5084771;28;20378;-65
2022/10/27 15:39:56;;;;;;;;;;;20.00;70.50;;;;;;5084437;28;19916;-65
2022/10/27 15:42:26;;;;;;;;;;;20.00;70.50;;;;;;5086321;28;20184;-65
2022/10/27 15:44:52;;;;;;;;;;;20.00;70.60;;;;;;5081352;28;19924;-65
2022/10/27 15:47:37;;;;;;;;;;;19.20;70.10;;;;;;5083974;28;19920;-65
2022/10/27 15:50:04;;;;;;;;;;;20.00;70.50;;;;;;5085402;28;19920;-65
2022/10/27 15:52:29;;;;;;;;;;;20.00;70.50;;;;;;5084494;28;19924;-65
2022/10/27 15:54:55;;;;;;;;;;;20.00;70.40;;;;;;5079880;28;19926;-65